createdAt,value
2022-11-20T00:06:27.855Z,-0.03
2022-11-20T00:16:49.296Z,0.02
2022-11-20T00:27:10.770Z,0.02
2022-11-20T00:37:32.228Z,0.09
2022-11-20T00:47:53.675Z,0.17
2022-11-20T00:58:15.196Z,0.21
2022-11-20T01:08:37.716Z,0.32
2022-11-20T01:19:01.213Z,0.34
2022-11-20T01:29:26.335Z,0.31
2022-11-20T01:39:47.773Z,0.34
2022-11-20T01:50:25.405Z,0.35
2022-11-20T02:00:46.863Z,0.35
2022-11-20T02:11:08.434Z,0.36
2022-11-20T02:21:48.700Z,0.35
2022-11-20T02:32:26.739Z,0.35
2022-11-20T02:42:48.699Z,0.34
2022-11-20T02:53:10.074Z,0.30
2022-11-20T03:03:31.532Z,0.34
2022-11-20T03:13:53.006Z,0.38
2022-11-20T03:24:15.987Z,0.34
2022-11-20T03:34:37.444Z,0.32
2022-11-20T03:44:59.188Z,0.34
2022-11-20T03:55:20.636Z,0.39
2022-11-20T04:05:42.076Z,0.42
2022-11-20T04:16:03.991Z,0.46
2022-11-20T04:26:26.193Z,0.37
2022-11-20T04:36:47.670Z,0.37
2022-11-20T04:47:09.114Z,0.41
2022-11-20T04:57:30.639Z,0.45
2022-11-20T05:07:52.153Z,0.49
2022-11-20T05:18:13.600Z,0.54
2022-11-20T05:28:35.318Z,0.50
2022-11-20T05:39:01.319Z,0.50
2022-11-20T05:49:25.975Z,0.50
2022-11-20T05:59:47.406Z,0.36
2022-11-20T06:10:09.271Z,0.32
2022-11-20T06:20:30.717Z,0.40
2022-11-20T06:30:52.170Z,0.36
2022-11-20T06:41:16.246Z,0.37
2022-11-20T06:51:39.189Z,0.41
2022-11-20T07:02:00.669Z,0.40
2022-11-20T07:12:22.157Z,0.41
2022-11-20T07:22:46.895Z,0.37
2022-11-20T07:33:08.346Z,0.41
2022-11-20T07:43:30.248Z,0.40
2022-11-20T07:53:53.209Z,0.45
2022-11-20T08:04:17.048Z,0.43
2022-11-20T08:14:38.513Z,0.49
2022-11-20T08:25:00.040Z,0.41
2022-11-20T08:35:22.492Z,0.32
2022-11-20T08:45:44.204Z,0.35
2022-11-20T08:56:06.425Z,0.44
2022-11-20T09:06:30.621Z,0.49
2022-11-20T09:16:52.072Z,0.54
2022-11-20T09:27:13.534Z,0.74
2022-11-20T09:37:35.392Z,0.98
2022-11-20T09:48:19.308Z,1.01
2022-11-20T09:58:48.564Z,1.06
2022-11-20T10:09:19.967Z,1.04
2022-11-20T10:20:12.674Z,0.99
2022-11-20T10:30:41.225Z,1.00
2022-11-20T10:41:23.821Z,1.09
2022-11-20T10:52:05.677Z,1.13
2022-11-20T11:02:53.994Z,1.15
2022-11-20T11:13:23.885Z,1.37
2022-11-20T11:23:45.335Z,1.35
2022-11-20T11:34:17.630Z,1.42
2022-11-20T11:45:04.934Z,1.62
2022-11-20T11:55:44.028Z,1.81
2022-11-20T12:06:15.315Z,1.79
2022-11-20T12:16:38.884Z,1.98
2022-11-20T12:27:35.176Z,2.08
2022-11-20T12:38:38.733Z,2.08
2022-11-20T12:49:06.438Z,2.18
2022-11-20T12:59:46.845Z,2.25
2022-11-20T13:10:19.214Z,2.25
2022-11-20T13:20:45.986Z,2.02
2022-11-20T13:31:25.572Z,2.10
2022-11-20T13:41:55.736Z,2.17
2022-11-20T13:52:32.520Z,2.31
2022-11-20T14:03:06.182Z,2.25
2022-11-20T14:13:27.624Z,2.26
2022-11-20T14:23:49.071Z,2.20
2022-11-20T14:34:21.375Z,2.06
2022-11-20T14:44:43.847Z,1.99
2022-11-20T14:55:05.832Z,1.99
2022-11-20T15:05:46.322Z,1.86
2022-11-20T15:16:27.807Z,1.74
2022-11-20T15:26:49.388Z,1.55
2022-11-20T15:37:10.866Z,1.35
2022-11-20T15:47:35.313Z,1.20
2022-11-20T15:57:56.797Z,1.02
2022-11-20T16:08:18.299Z,0.90
2022-11-20T16:18:39.770Z,0.80
2022-11-20T16:29:03.431Z,0.69
2022-11-20T16:39:26.079Z,0.74
2022-11-20T16:49:47.525Z,0.64
2022-11-20T17:00:09.676Z,0.61
2022-11-20T17:10:34.261Z,0.49
2022-11-20T17:20:55.792Z,0.47
2022-11-20T17:31:17.473Z,0.44
2022-11-20T17:41:38.991Z,0.35
2022-11-20T17:52:00.512Z,0.24
2022-11-20T18:02:25.014Z,0.18
2022-11-20T18:12:46.536Z,0.17
2022-11-20T18:23:07.995Z,0.11
2022-11-20T18:33:31.504Z,0.06
2022-11-20T18:44:11.460Z,0.08
2022-11-20T18:54:35.680Z,0.02
2022-11-20T19:04:57.201Z,0.11
2022-11-20T19:15:18.990Z,0.10
2022-11-20T19:25:40.452Z,0.15
2022-11-20T19:36:10.343Z,0.21
2022-11-20T19:46:33.925Z,0.23
2022-11-20T19:56:55.704Z,0.32
2022-11-20T20:07:19.906Z,0.32
2022-11-20T20:17:41.468Z,0.11
2022-11-20T20:28:02.951Z,0.01
2022-11-20T20:38:24.410Z,-0.05
2022-11-20T20:48:49.069Z,-0.22
2022-11-20T20:59:14.555Z,-0.22
2022-11-20T21:09:36.228Z,-0.24
2022-11-20T21:19:57.719Z,-0.30
2022-11-20T21:30:19.258Z,-0.32
2022-11-20T21:40:40.711Z,-0.33
2022-11-20T21:51:10.828Z,-0.39
2022-11-20T22:01:32.431Z,-0.43
2022-11-20T22:11:53.996Z,-0.41
2022-11-20T22:22:15.450Z,-0.43
2022-11-20T22:32:36.891Z,-0.49
2022-11-20T22:42:58.396Z,-0.50
2022-11-20T22:53:19.865Z,-0.58
2022-11-20T23:03:44.421Z,-0.60
2022-11-20T23:14:08.335Z,-0.65
2022-11-20T23:24:29.828Z,-0.74
2022-11-20T23:34:51.565Z,-0.70
2022-11-20T23:45:13.136Z,-0.70
2022-11-20T23:55:35.167Z,-0.71
